Terminal Aerodrome Forecast
Issued by NWS

Home | Current Version | Previous Version | Text Only | Print | Product List | Glossary On
Versions: 1 2 3 4 5 6 7 8 9 10 11 12 13 14 15 16 17 18
196
FTUS46 KSTO 182322
TAFRDD
TAF
KRDD 182322Z 1900/1924 18025G35KT 4SM RA BR SCT010 OVC020
      TEMPO 1900/1903 2SM RA BR
     FM190300 18010KT 4SM -SHRA OVC008
     FM192100 18010KT P6SM VCSH BKN025=

USA.gov is the U.S. government's official web portal to all federal, state and local government web resources and services.